createdAt,value
2022-10-02T00:05:01.099Z,11.35
2022-10-02T00:10:20.290Z,11.40
2022-10-02T00:15:30.359Z,11.46
2022-10-02T00:21:08.579Z,11.53
2022-10-02T00:26:42.641Z,11.55
2022-10-02T00:32:19.622Z,11.53
2022-10-02T00:38:14.134Z,11.58
2022-10-02T00:43:26.967Z,11.63
2022-10-02T00:48:49.790Z,11.65
2022-10-02T00:54:28.884Z,11.69
2022-10-02T00:59:59.251Z,11.73
2022-10-02T01:05:09.507Z,11.78
2022-10-02T01:10:15.605Z,11.77
2022-10-02T01:15:23.984Z,11.78
2022-10-02T01:20:53.110Z,11.79
2022-10-02T01:25:59.549Z,11.84
2022-10-02T01:31:14.961Z,11.86
2022-10-02T01:36:19.476Z,11.91
2022-10-02T01:41:23.991Z,11.94
2022-10-02T01:46:36.066Z,11.93
2022-10-02T01:51:53.862Z,11.93
2022-10-02T01:57:00.751Z,11.98
2022-10-02T02:02:32.303Z,11.99
2022-10-02T02:08:11.617Z,12.02
2022-10-02T02:13:31.291Z,12.02
2022-10-02T02:18:49.238Z,12.06
2022-10-02T02:23:56.516Z,12.06
2022-10-02T02:29:08.143Z,12.05
2022-10-02T02:34:21.204Z,11.97
2022-10-02T02:40:02.776Z,11.99
2022-10-02T02:45:22.887Z,12.02
2022-10-02T02:50:44.528Z,12.02
2022-10-02T02:56:01.176Z,12.03
2022-10-02T03:01:04.945Z,12.02
2022-10-02T03:06:38.907Z,12.04
2022-10-02T03:12:12.685Z,12.06
2022-10-02T03:17:44.336Z,12.03
2022-10-02T03:23:19.521Z,11.98
2022-10-02T03:29:03.319Z,11.95
2022-10-02T03:34:07.533Z,11.98
2022-10-02T03:39:26.883Z,12.00
2022-10-02T03:44:31.826Z,12.00
2022-10-02T03:49:35.568Z,12.00
2022-10-02T03:54:39.371Z,12.02
2022-10-02T04:00:14.173Z,12.03
2022-10-02T04:05:23.577Z,12.04
2022-10-02T04:10:53.247Z,12.04
2022-10-02T04:16:17.886Z,12.03
2022-10-02T04:21:47.140Z,12.02
2022-10-02T04:27:21.780Z,12.01
2022-10-02T04:32:30.277Z,12.01
2022-10-02T04:37:46.080Z,12.02
2022-10-02T04:43:05.317Z,12.03
2022-10-02T04:48:45.317Z,12.04
2022-10-02T04:54:19.876Z,12.03
2022-10-02T04:59:40.756Z,12.02
2022-10-02T05:05:04.832Z,12.05
2022-10-02T05:10:22.557Z,12.05
2022-10-02T05:15:37.649Z,12.06
2022-10-02T05:20:44.524Z,12.04
2022-10-02T05:26:32.147Z,12.06
2022-10-02T05:32:39.931Z,12.11
2022-10-02T05:37:55.807Z,12.13
2022-10-02T05:43:46.409Z,12.18
2022-10-02T05:49:01.106Z,12.18
2022-10-02T05:54:43.088Z,12.22
2022-10-02T06:00:15.767Z,12.27
2022-10-02T06:05:48.277Z,12.31
2022-10-02T06:11:00.298Z,12.40
2022-10-02T06:16:16.364Z,12.52
2022-10-02T06:21:36.576Z,12.60
2022-10-02T06:27:05.201Z,12.64
2022-10-02T06:32:43.464Z,12.69
2022-10-02T06:38:18.921Z,12.65
2022-10-02T06:43:47.652Z,12.75
2022-10-02T06:49:22.740Z,12.83
2022-10-02T06:54:44.846Z,12.84
2022-10-02T07:00:13.042Z,12.89
2022-10-02T07:06:12.570Z,12.99
2022-10-02T07:12:26.640Z,13.07
2022-10-02T07:18:24.230Z,13.26
2022-10-02T07:23:46.887Z,13.27
2022-10-02T07:29:31.837Z,13.32
2022-10-02T07:34:52.471Z,13.35
2022-10-02T07:40:24.998Z,13.40
2022-10-02T07:45:38.533Z,13.54
2022-10-02T07:51:07.273Z,13.56
2022-10-02T07:56:20.544Z,13.47
2022-10-02T08:01:36.920Z,13.41
2022-10-02T08:06:42.345Z,13.35
2022-10-02T08:19:00.622Z,13.61
2022-10-02T08:30:34.998Z,13.94
2022-10-02T08:36:08.527Z,14.06
2022-10-02T08:41:40.418Z,14.11
2022-10-02T08:47:57.007Z,14.06
2022-10-02T08:53:53.091Z,14.07
2022-10-02T08:59:27.036Z,14.56
2022-10-02T09:05:12.631Z,15.55
2022-10-02T09:10:54.237Z,16.26
2022-10-02T09:16:12.844Z,16.66
2022-10-02T09:21:25.833Z,16.97
2022-10-02T09:27:18.532Z,16.67
2022-10-02T09:32:58.070Z,15.92
2022-10-02T09:38:30.471Z,15.61
2022-10-02T09:43:50.078Z,15.76
2022-10-02T09:49:32.704Z,16.01
2022-10-02T09:54:58.545Z,16.10
2022-10-02T10:00:15.275Z,15.93
2022-10-02T10:05:42.231Z,15.71
2022-10-02T10:11:38.896Z,15.99
2022-10-02T10:17:31.278Z,16.46
2022-10-02T10:23:23.730Z,16.44
2022-10-02T10:29:13.548Z,16.30
2022-10-02T10:34:52.992Z,17.06
2022-10-02T10:40:10.469Z,17.71
2022-10-02T10:45:44.413Z,17.61
2022-10-02T10:51:17.691Z,17.25
2022-10-02T10:56:38.300Z,16.92
2022-10-02T11:02:14.510Z,16.77
2022-10-02T11:08:02.791Z,16.73
2022-10-02T11:13:46.303Z,16.73
2022-10-02T11:19:48.393Z,16.61
2022-10-02T11:25:23.247Z,16.73
2022-10-02T11:30:40.886Z,16.91
2022-10-02T11:36:24.600Z,16.77
2022-10-02T11:41:40.766Z,16.58
2022-10-02T11:47:29.231Z,16.56
2022-10-02T11:52:54.178Z,16.30
2022-10-02T11:58:30.445Z,16.16
2022-10-02T12:04:19.103Z,16.30
2022-10-02T12:09:51.005Z,16.55
2022-10-02T12:15:35.271Z,16.38
2022-10-02T12:21:19.544Z,16.22
2022-10-02T12:26:50.115Z,15.94
2022-10-02T12:32:10.359Z,15.40
2022-10-02T12:37:25.718Z,14.88
2022-10-02T12:43:40.371Z,14.58
2022-10-02T12:49:12.939Z,14.41
2022-10-02T12:54:57.771Z,14.34
2022-10-02T13:00:19.900Z,14.61
2022-10-02T13:05:45.999Z,14.91
2022-10-02T13:11:15.430Z,15.37
2022-10-02T13:16:34.566Z,15.67
2022-10-02T13:22:34.726Z,15.69
2022-10-02T13:28:21.625Z,15.80
2022-10-02T13:33:51.800Z,16.23
2022-10-02T13:39:34.761Z,16.41
2022-10-02T13:45:01.566Z,16.09
2022-10-02T13:50:25.870Z,15.65
2022-10-02T13:55:47.432Z,15.05
2022-10-02T14:01:20.887Z,14.38
2022-10-02T14:06:34.507Z,13.97
2022-10-02T14:12:13.291Z,13.88
2022-10-02T14:17:42.310Z,14.26
2022-10-02T14:23:06.488Z,14.57
2022-10-02T14:28:36.651Z,14.86
2022-10-02T14:34:21.213Z,14.67
2022-10-02T14:39:46.167Z,14.42
2022-10-02T14:45:01.475Z,14.37
2022-10-02T14:50:39.542Z,16.76
2022-10-02T14:56:22.655Z,18.86
2022-10-02T15:01:28.200Z,19.76
2022-10-02T15:07:10.166Z,20.85
2022-10-02T15:13:01.686Z,21.15
2022-10-02T15:19:14.353Z,20.63
2022-10-02T15:24:36.941Z,19.51
2022-10-02T15:30:04.829Z,19.47
2022-10-02T15:35:56.864Z,18.43
2022-10-02T15:41:14.365Z,16.89
2022-10-02T15:46:34.562Z,15.96
2022-10-02T15:52:37.830Z,15.29
2022-10-02T15:58:05.246Z,14.51
2022-10-02T16:03:44.312Z,14.14
2022-10-02T16:09:23.291Z,13.77
2022-10-02T16:15:02.143Z,13.32
2022-10-02T16:20:35.181Z,13.12
2022-10-02T16:26:08.594Z,12.94
2022-10-02T16:31:56.043Z,12.84
2022-10-02T16:37:11.034Z,12.75
2022-10-02T16:42:46.996Z,12.65
2022-10-02T16:47:55.867Z,12.49
2022-10-02T16:53:16.051Z,12.44
2022-10-02T16:58:58.034Z,12.42
2022-10-02T17:04:40.450Z,12.31
2022-10-02T17:10:03.745Z,12.26
2022-10-02T17:16:18.803Z,12.18
2022-10-02T17:22:27.233Z,12.08
2022-10-02T17:27:50.001Z,12.02
2022-10-02T17:33:28.246Z,11.93
2022-10-02T17:39:04.333Z,11.82
2022-10-02T17:44:45.381Z,11.81
2022-10-02T17:50:30.896Z,11.76
2022-10-02T17:56:39.231Z,11.67
2022-10-02T18:02:02.777Z,11.66
2022-10-02T18:07:40.492Z,11.61
2022-10-02T18:13:00.407Z,11.64
2022-10-02T18:18:25.733Z,11.56
2022-10-02T18:23:52.486Z,11.43
2022-10-02T18:29:45.193Z,11.33
2022-10-02T18:35:40.107Z,11.29
2022-10-02T18:41:33.353Z,11.12
2022-10-02T18:46:50.127Z,11.04
2022-10-02T18:52:34.149Z,11.06
2022-10-02T18:57:52.353Z,11.04
2022-10-02T19:03:49.454Z,11.01
2022-10-02T19:09:09.651Z,10.96
2022-10-02T19:14:43.369Z,10.94
2022-10-02T19:19:52.786Z,10.93
2022-10-02T19:25:07.271Z,10.92
2022-10-02T19:30:28.904Z,10.85
2022-10-02T19:35:44.131Z,10.72
2022-10-02T19:40:56.005Z,10.70
2022-10-02T19:46:06.389Z,10.66
2022-10-02T19:51:21.926Z,10.59
2022-10-02T19:56:44.550Z,10.58
2022-10-02T20:01:56.560Z,10.58
2022-10-02T20:07:02.397Z,10.60
2022-10-02T20:12:37.687Z,10.53
2022-10-02T20:17:42.669Z,10.52
2022-10-02T20:22:59.138Z,10.49
2022-10-02T20:28:21.512Z,10.49
2022-10-02T20:33:51.532Z,10.52
2022-10-02T20:39:11.520Z,10.52
2022-10-02T20:44:16.153Z,10.48
2022-10-02T20:50:16.164Z,10.46
2022-10-02T20:55:41.942Z,10.49
2022-10-02T21:01:19.172Z,10.50
2022-10-02T21:06:55.299Z,10.54
2022-10-02T21:12:52.795Z,10.58
2022-10-02T21:18:52.463Z,10.65
2022-10-02T21:24:31.284Z,10.75
2022-10-02T21:30:05.177Z,10.84
2022-10-02T21:35:32.595Z,10.90
2022-10-02T21:41:30.562Z,11.03
2022-10-02T21:47:11.912Z,11.11
2022-10-02T21:52:46.140Z,11.16
2022-10-02T21:58:49.864Z,11.21
2022-10-02T22:04:35.658Z,11.28
2022-10-02T22:09:57.038Z,11.34
2022-10-02T22:15:16.452Z,11.37
2022-10-02T22:20:53.696Z,11.35
2022-10-02T22:26:29.544Z,11.34
2022-10-02T22:31:52.655Z,11.30
2022-10-02T22:37:44.419Z,11.33
2022-10-02T22:42:59.698Z,11.39
2022-10-02T22:48:14.272Z,11.42
2022-10-02T22:53:34.801Z,11.44
2022-10-02T22:58:54.274Z,11.47
2022-10-02T23:04:04.251Z,11.49
2022-10-02T23:09:29.785Z,11.51
2022-10-02T23:15:02.001Z,11.53
2022-10-02T23:20:27.211Z,11.55
2022-10-02T23:25:41.873Z,11.54
2022-10-02T23:31:01.569Z,11.54
2022-10-02T23:36:48.631Z,11.50
2022-10-02T23:41:58.815Z,11.50
2022-10-02T23:47:45.481Z,11.52
2022-10-02T23:53:31.702Z,11.55
2022-10-02T23:58:56.032Z,11.55
